createdAt,value
2018-11-06T00:00:49.771Z,11.89
2018-11-06T00:03:24.405Z,11.88
2018-11-06T00:05:53.746Z,11.86
2018-11-06T00:08:23.237Z,11.81
2018-11-06T00:10:52.141Z,11.78
2018-11-06T00:13:20.949Z,11.78
2018-11-06T00:15:49.754Z,11.81
2018-11-06T00:18:18.561Z,11.77
2018-11-06T00:20:47.469Z,11.75
2018-11-06T00:23:16.809Z,11.72
2018-11-06T00:25:45.688Z,11.75
2018-11-06T00:28:14.905Z,11.71
2018-11-06T00:30:43.892Z,11.73
2018-11-06T00:33:12.884Z,11.71
2018-11-06T00:35:41.928Z,11.70
2018-11-06T00:38:10.829Z,11.63
2018-11-06T00:40:39.870Z,11.61
2018-11-06T00:43:08.690Z,11.62
2018-11-06T00:45:38.059Z,11.59
2018-11-06T00:48:07.250Z,11.67
2018-11-06T00:50:36.546Z,11.63
2018-11-06T00:53:05.711Z,11.61
2018-11-06T00:55:34.626Z,11.65
2018-11-06T00:58:03.400Z,11.62
2018-11-06T01:00:32.480Z,11.58
2018-11-06T01:03:01.422Z,11.65
2018-11-06T01:05:30.526Z,11.59
2018-11-06T01:07:59.320Z,11.60
2018-11-06T01:10:28.522Z,11.58
2018-11-06T01:12:57.627Z,11.60
2018-11-06T01:15:26.547Z,11.60
2018-11-06T01:17:55.611Z,11.64
2018-11-06T01:20:24.449Z,11.62
2018-11-06T01:22:53.345Z,11.62
2018-11-06T01:25:22.142Z,11.58
2018-11-06T01:27:51.250Z,11.55
2018-11-06T01:30:21.042Z,11.56
2018-11-06T01:32:49.865Z,11.56
2018-11-06T01:35:18.729Z,11.51
2018-11-06T01:37:47.849Z,11.50
2018-11-06T01:40:18.196Z,11.52
2018-11-06T01:42:47.567Z,11.47
2018-11-06T01:45:17.229Z,11.53
2018-11-06T01:47:46.068Z,11.50
2018-11-06T01:50:16.475Z,11.49
2018-11-06T01:52:46.644Z,11.47
2018-11-06T01:55:15.478Z,11.48
2018-11-06T01:57:44.238Z,11.47
2018-11-06T02:00:15.804Z,11.43
2018-11-06T02:02:47.549Z,11.43
2018-11-06T02:05:17.631Z,11.43
2018-11-06T02:07:47.779Z,11.45
2018-11-06T02:10:17.033Z,11.45
2018-11-06T02:12:47.025Z,11.42
2018-11-06T02:15:15.991Z,11.37
2018-11-06T02:17:45.453Z,11.38
2018-11-06T02:20:15.406Z,11.38
2018-11-06T02:22:45.011Z,11.41
2018-11-06T02:25:14.142Z,11.43
2018-11-06T02:27:42.937Z,11.36
2018-11-06T02:30:13.981Z,11.37
2018-11-06T02:32:43.830Z,11.32
2018-11-06T02:35:12.762Z,11.32
2018-11-06T02:37:42.003Z,11.31
2018-11-06T02:40:14.999Z,11.27
2018-11-06T02:42:44.395Z,11.28
2018-11-06T02:45:14.177Z,11.29
2018-11-06T02:47:43.572Z,11.26
2018-11-06T02:50:13.569Z,11.23
2018-11-06T02:52:43.165Z,11.25
2018-11-06T02:55:12.361Z,11.20
2018-11-06T02:57:41.915Z,11.21
2018-11-06T03:00:13.764Z,11.23
2018-11-06T03:02:43.022Z,11.19
2018-11-06T03:05:12.127Z,11.18
2018-11-06T03:07:41.591Z,11.17
2018-11-06T03:10:11.781Z,11.11
2018-11-06T03:12:42.119Z,11.09
2018-11-06T03:15:12.229Z,11.11
2018-11-06T03:17:41.446Z,11.08
2018-11-06T03:20:11.222Z,11.04
2018-11-06T03:22:40.881Z,11.03
2018-11-06T03:25:10.053Z,11.02
2018-11-06T03:27:38.936Z,11.02
2018-11-06T03:30:10.195Z,10.97
2018-11-06T03:32:39.101Z,11.00
2018-11-06T03:35:08.896Z,10.94
2018-11-06T03:37:38.279Z,10.90
2018-11-06T03:40:07.823Z,10.89
2018-11-06T03:42:36.952Z,10.88
2018-11-06T03:45:06.481Z,10.85
2018-11-06T03:47:35.464Z,10.85
2018-11-06T03:50:04.303Z,10.83
2018-11-06T03:52:33.080Z,10.82
2018-11-06T03:55:01.863Z,10.79
2018-11-06T03:57:30.678Z,10.79
2018-11-06T03:59:59.895Z,10.78
2018-11-06T04:02:28.770Z,10.74
2018-11-06T04:04:57.718Z,10.76
2018-11-06T04:07:26.666Z,10.73
2018-11-06T04:09:55.551Z,10.73
2018-11-06T04:12:24.354Z,10.74
2018-11-06T04:14:53.149Z,10.71
2018-11-06T04:17:22.019Z,10.67
2018-11-06T04:19:51.114Z,10.73
2018-11-06T04:22:19.993Z,10.68
2018-11-06T04:24:48.878Z,10.66
2018-11-06T04:27:17.775Z,10.68
2018-11-06T04:29:46.627Z,10.63
2018-11-06T04:32:15.590Z,10.63
2018-11-06T04:34:44.467Z,10.61
2018-11-06T04:37:13.974Z,10.60
2018-11-06T04:39:42.838Z,10.60
2018-11-06T04:42:11.664Z,10.61
2018-11-06T04:44:40.558Z,10.58
2018-11-06T04:47:09.394Z,10.59
2018-11-06T04:49:38.915Z,10.56
2018-11-06T04:52:07.733Z,10.57
2018-11-06T04:54:36.582Z,10.57
2018-11-06T04:57:05.809Z,10.54
2018-11-06T04:59:34.642Z,10.54
2018-11-06T05:02:03.745Z,10.51
2018-11-06T05:04:32.606Z,10.51
2018-11-06T05:07:01.656Z,10.47
2018-11-06T05:09:37.262Z,10.45
2018-11-06T05:12:06.420Z,10.44
2018-11-06T05:14:35.535Z,10.46
2018-11-06T05:17:04.693Z,10.46
2018-11-06T05:19:33.807Z,10.46
2018-11-06T05:22:02.760Z,10.42
2018-11-06T05:24:31.605Z,10.40
2018-11-06T05:27:00.507Z,10.38
2018-11-06T05:29:29.288Z,10.38
2018-11-06T05:31:58.201Z,10.38
2018-11-06T05:34:27.438Z,10.36
2018-11-06T05:36:56.293Z,10.36
2018-11-06T05:39:25.166Z,10.36
2018-11-06T05:41:54.880Z,10.36
2018-11-06T05:44:23.974Z,10.34
2018-11-06T05:46:52.814Z,10.34
2018-11-06T05:49:21.749Z,10.33
2018-11-06T05:51:50.631Z,10.30
2018-11-06T05:54:19.551Z,10.32
2018-11-06T05:56:48.365Z,10.30
2018-11-06T05:59:17.283Z,10.27
2018-11-06T06:01:46.173Z,10.26
2018-11-06T06:04:15.094Z,10.26
2018-11-06T06:06:43.933Z,10.27
2018-11-06T06:09:12.785Z,10.28
2018-11-06T06:11:41.682Z,10.27
2018-11-06T06:14:11.142Z,10.26
2018-11-06T06:16:40.026Z,10.26
2018-11-06T06:19:08.887Z,10.27
2018-11-06T06:21:39.163Z,10.26
2018-11-06T06:24:08.029Z,10.25
2018-11-06T06:26:36.950Z,10.24
2018-11-06T06:29:06.271Z,10.24
2018-11-06T06:31:35.151Z,10.25
2018-11-06T06:34:04.319Z,10.25
2018-11-06T06:36:33.186Z,10.25
2018-11-06T06:39:02.160Z,10.27
2018-11-06T06:41:31.306Z,10.22
2018-11-06T06:44:00.235Z,10.22
2018-11-06T06:46:29.155Z,10.23
2018-11-06T06:48:58.239Z,10.28
2018-11-06T06:51:27.142Z,10.26
2018-11-06T06:53:56.003Z,10.28
2018-11-06T06:56:24.874Z,10.29
2018-11-06T06:58:55.240Z,10.28
2018-11-06T07:01:25.854Z,10.29
2018-11-06T07:03:56.416Z,10.33
2018-11-06T07:06:27.291Z,10.32
2018-11-06T07:08:57.397Z,10.33
2018-11-06T07:11:27.655Z,10.36
2018-11-06T07:13:57.857Z,10.39
2018-11-06T07:16:31.311Z,10.41
2018-11-06T07:19:01.612Z,10.39
2018-11-06T07:21:32.833Z,10.39
2018-11-06T07:24:03.596Z,10.40
2018-11-06T07:26:32.938Z,10.42
2018-11-06T07:29:03.950Z,10.42
2018-11-06T07:31:33.309Z,10.43
2018-11-06T07:34:04.540Z,10.45
2018-11-06T07:36:33.428Z,10.48
2018-11-06T07:39:02.446Z,10.52
2018-11-06T07:41:31.413Z,10.52
2018-11-06T07:44:00.268Z,10.56
2018-11-06T07:46:29.414Z,10.57
2018-11-06T07:48:58.191Z,10.61
2018-11-06T07:51:26.991Z,10.66
2018-11-06T07:53:56.048Z,10.68
2018-11-06T07:56:24.869Z,10.72
2018-11-06T07:58:53.848Z,10.75
2018-11-06T08:01:23.046Z,10.79
2018-11-06T08:03:51.846Z,10.88
2018-11-06T08:06:20.767Z,10.89
2018-11-06T08:08:49.588Z,10.95
2018-11-06T08:11:18.394Z,10.98
2018-11-06T08:13:47.477Z,11.00
2018-11-06T08:16:16.299Z,11.08
2018-11-06T08:18:45.383Z,11.16
2018-11-06T08:21:14.474Z,11.16
2018-11-06T08:23:43.348Z,11.19
2018-11-06T08:26:12.591Z,11.23
2018-11-06T08:28:41.599Z,11.28
2018-11-06T08:31:10.777Z,11.34
2018-11-06T08:33:39.486Z,11.36
2018-11-06T08:36:08.307Z,11.39
2018-11-06T08:38:37.175Z,11.48
2018-11-06T08:41:06.470Z,11.54
2018-11-06T08:43:35.323Z,11.60
2018-11-06T08:46:04.174Z,11.63
2018-11-06T08:48:33.013Z,11.70
2018-11-06T08:51:02.193Z,11.83
2018-11-06T08:53:31.096Z,11.84
2018-11-06T08:56:00.721Z,11.89
2018-11-06T08:58:29.568Z,11.99
2018-11-06T09:00:58.501Z,12.03
2018-11-06T09:03:27.349Z,12.13
2018-11-06T09:05:56.164Z,12.13
2018-11-06T09:08:25.035Z,12.16
2018-11-06T09:10:54.052Z,12.21
2018-11-06T09:13:22.993Z,12.25
2018-11-06T09:15:51.969Z,12.36
2018-11-06T09:18:20.985Z,12.39
2018-11-06T09:20:49.885Z,12.41
2018-11-06T09:23:18.786Z,12.50
2018-11-06T09:25:47.833Z,12.58
2018-11-06T09:28:16.703Z,12.63
2018-11-06T09:30:45.522Z,12.69
2018-11-06T09:33:14.592Z,12.79
2018-11-06T09:35:43.880Z,12.82
2018-11-06T09:38:12.718Z,12.90
2018-11-06T09:40:41.513Z,13.02
2018-11-06T09:43:10.302Z,13.11
2018-11-06T09:45:39.197Z,13.14
2018-11-06T09:48:08.112Z,13.18
2018-11-06T09:50:36.974Z,13.27
2018-11-06T09:53:06.710Z,13.31
2018-11-06T09:55:35.962Z,13.32
2018-11-06T09:58:06.206Z,13.39
2018-11-06T10:00:35.049Z,13.42
2018-11-06T10:03:03.912Z,13.47
2018-11-06T10:05:32.748Z,13.50
2018-11-06T10:08:01.962Z,13.50
2018-11-06T10:10:30.801Z,13.55
2018-11-06T10:12:59.863Z,13.71
2018-11-06T10:15:29.096Z,13.75
2018-11-06T10:17:58.013Z,13.76
2018-11-06T10:20:26.860Z,13.80
2018-11-06T10:22:55.776Z,13.82
2018-11-06T10:25:24.727Z,13.85
2018-11-06T10:27:53.588Z,13.90
2018-11-06T10:30:22.911Z,13.94
2018-11-06T10:32:51.769Z,13.96
2018-11-06T10:35:20.542Z,14.03
2018-11-06T10:37:49.389Z,14.07
2018-11-06T10:40:19.713Z,14.11
2018-11-06T10:42:48.889Z,14.22
2018-11-06T10:45:18.392Z,14.31
2018-11-06T10:47:47.548Z,14.32
2018-11-06T10:50:17.077Z,14.34
2018-11-06T10:52:47.035Z,14.42
2018-11-06T10:55:15.874Z,14.46
2018-11-06T10:57:44.635Z,14.47
2018-11-06T11:00:19.422Z,14.55
2018-11-06T11:02:53.460Z,14.63
2018-11-06T11:05:24.468Z,14.71
2018-11-06T11:07:53.621Z,14.69
2018-11-06T11:10:22.444Z,14.78
2018-11-06T11:12:51.585Z,14.86
2018-11-06T11:15:20.421Z,14.91
2018-11-06T11:17:49.252Z,14.92
2018-11-06T11:20:18.143Z,14.96
2018-11-06T11:22:46.894Z,15.00
2018-11-06T11:25:16.750Z,15.02
2018-11-06T11:27:46.552Z,15.04
2018-11-06T11:30:16.365Z,15.13
2018-11-06T11:32:46.897Z,15.17
2018-11-06T11:35:15.875Z,15.17
2018-11-06T11:37:44.908Z,15.27
2018-11-06T11:40:14.892Z,15.28
2018-11-06T11:42:44.534Z,15.28
2018-11-06T11:45:14.289Z,15.28
2018-11-06T11:47:43.440Z,15.39
2018-11-06T11:50:13.409Z,15.47
2018-11-06T11:52:49.005Z,15.55
2018-11-06T11:55:17.877Z,15.52
2018-11-06T11:57:46.816Z,15.55
2018-11-06T12:00:17.584Z,15.59
2018-11-06T12:02:46.743Z,15.62
2018-11-06T12:05:15.565Z,15.64
2018-11-06T12:07:44.495Z,15.63
2018-11-06T12:10:13.844Z,15.64
2018-11-06T12:12:42.812Z,15.64
2018-11-06T12:15:14.096Z,15.68
2018-11-06T12:17:43.866Z,15.75
2018-11-06T12:20:13.316Z,15.72
2018-11-06T12:22:42.672Z,15.75
2018-11-06T12:25:12.172Z,15.78
2018-11-06T12:27:40.835Z,15.77
2018-11-06T12:30:11.833Z,15.77
2018-11-06T12:32:41.600Z,15.82
2018-11-06T12:35:11.845Z,15.77
2018-11-06T12:37:41.267Z,15.76
2018-11-06T12:40:11.316Z,15.78
2018-11-06T12:42:40.665Z,15.81
2018-11-06T12:45:12.347Z,15.84
2018-11-06T12:47:41.737Z,15.96
2018-11-06T12:50:10.805Z,15.98
2018-11-06T12:52:40.009Z,15.96
2018-11-06T12:55:10.573Z,15.97
2018-11-06T12:57:39.558Z,16.02
2018-11-06T13:00:11.251Z,16.02
2018-11-06T13:02:40.419Z,16.01
2018-11-06T13:05:09.598Z,16.02
2018-11-06T13:07:39.875Z,16.01
2018-11-06T13:10:09.245Z,16.03
2018-11-06T13:12:38.179Z,16.06
2018-11-06T13:15:07.781Z,16.14
2018-11-06T13:17:37.381Z,16.07
2018-11-06T13:20:08.238Z,16.10
2018-11-06T13:22:37.489Z,16.10
2018-11-06T13:25:07.240Z,16.12
2018-11-06T13:27:36.930Z,16.12
2018-11-06T13:30:07.507Z,16.04
2018-11-06T13:32:36.324Z,16.06
2018-11-06T13:35:05.875Z,16.06
2018-11-06T13:37:35.210Z,16.04
2018-11-06T13:40:04.968Z,16.07
2018-11-06T13:42:34.016Z,16.09
2018-11-06T13:45:03.373Z,16.06
2018-11-06T13:47:32.013Z,16.06
2018-11-06T13:50:00.938Z,16.08
2018-11-06T13:52:29.815Z,16.04
2018-11-06T13:54:58.680Z,16.00
2018-11-06T13:57:27.493Z,15.98
2018-11-06T13:59:56.273Z,16.09
2018-11-06T14:02:25.263Z,16.02
2018-11-06T14:04:54.111Z,16.01
2018-11-06T14:07:23.018Z,16.00
2018-11-06T14:09:52.174Z,15.98
2018-11-06T14:12:21.284Z,15.90
2018-11-06T14:14:50.136Z,15.88
2018-11-06T14:17:19.021Z,15.84
2018-11-06T14:19:47.896Z,15.85
2018-11-06T14:22:17.127Z,15.80
2018-11-06T14:24:45.912Z,15.79
2018-11-06T14:27:14.937Z,15.83
2018-11-06T14:29:43.768Z,15.85
2018-11-06T14:32:12.618Z,15.75
2018-11-06T14:34:41.760Z,15.69
2018-11-06T14:37:10.776Z,15.66
2018-11-06T14:39:39.693Z,15.60
2018-11-06T14:42:08.607Z,15.62
2018-11-06T14:44:37.778Z,15.61
2018-11-06T14:47:07.073Z,15.61
2018-11-06T14:49:36.181Z,15.55
2018-11-06T14:52:05.485Z,15.52
2018-11-06T14:54:34.883Z,15.49
2018-11-06T14:57:03.839Z,15.43
2018-11-06T14:59:32.872Z,15.35
2018-11-06T15:02:02.189Z,15.35
2018-11-06T15:04:31.252Z,15.29
2018-11-06T15:07:00.154Z,15.25
2018-11-06T15:09:29.125Z,15.18
2018-11-06T15:11:59.030Z,15.13
2018-11-06T15:14:27.995Z,15.13
2018-11-06T15:16:56.901Z,15.06
2018-11-06T15:19:25.939Z,15.02
2018-11-06T15:21:55.603Z,15.02
2018-11-06T15:24:24.856Z,14.98
2018-11-06T15:26:53.852Z,14.92
2018-11-06T15:29:22.871Z,14.87
2018-11-06T15:31:51.985Z,14.85
2018-11-06T15:34:20.912Z,14.83
2018-11-06T15:36:50.945Z,14.78
2018-11-06T15:39:19.859Z,14.81
2018-11-06T15:41:48.852Z,14.78
2018-11-06T15:44:17.501Z,14.75
2018-11-06T15:46:46.453Z,14.72
2018-11-06T15:49:15.414Z,14.69
2018-11-06T15:51:44.226Z,14.66
2018-11-06T15:54:13.244Z,14.64
2018-11-06T15:56:42.299Z,14.61
2018-11-06T15:59:11.090Z,14.58
2018-11-06T16:01:40.053Z,14.55
2018-11-06T16:04:09.060Z,14.53
2018-11-06T16:06:38.001Z,14.48
2018-11-06T16:09:07.754Z,14.44
2018-11-06T16:11:36.703Z,14.43
2018-11-06T16:14:05.627Z,14.43
2018-11-06T16:16:34.576Z,14.44
2018-11-06T16:19:03.758Z,14.43
2018-11-06T16:21:32.635Z,14.41
2018-11-06T16:24:01.618Z,14.41
2018-11-06T16:26:30.595Z,14.39
2018-11-06T16:28:59.626Z,14.41
2018-11-06T16:31:28.423Z,14.35
2018-11-06T16:33:57.628Z,14.34
2018-11-06T16:36:26.681Z,14.33
2018-11-06T16:38:55.973Z,14.29
2018-11-06T16:41:24.948Z,14.25
2018-11-06T16:43:53.899Z,14.22
2018-11-06T16:46:22.973Z,14.24
2018-11-06T16:48:52.038Z,14.24
2018-11-06T16:51:20.877Z,14.22
2018-11-06T16:53:49.867Z,14.24
2018-11-06T16:56:18.795Z,14.24
2018-11-06T16:58:47.892Z,14.21
2018-11-06T17:01:16.895Z,14.18
2018-11-06T17:03:45.781Z,14.18
2018-11-06T17:06:19.849Z,14.18
2018-11-06T17:08:48.834Z,14.14
2018-11-06T17:11:17.953Z,14.10
2018-11-06T17:13:46.793Z,14.07
2018-11-06T17:16:15.653Z,14.05
2018-11-06T17:18:44.540Z,14.04
2018-11-06T17:21:13.608Z,14.05
2018-11-06T17:23:42.891Z,14.04
2018-11-06T17:26:11.756Z,14.02
2018-11-06T17:28:40.640Z,14.03
2018-11-06T17:31:09.719Z,14.02
2018-11-06T17:33:38.736Z,13.96
2018-11-06T17:36:08.065Z,13.92
2018-11-06T17:38:36.940Z,13.89
2018-11-06T17:41:06.811Z,13.87
2018-11-06T17:43:35.830Z,13.84
2018-11-06T17:46:04.987Z,13.82
2018-11-06T17:48:33.870Z,13.80
2018-11-06T17:51:02.708Z,13.78
2018-11-06T17:53:31.677Z,13.80
2018-11-06T17:56:00.536Z,13.77
2018-11-06T17:58:29.788Z,13.75
2018-11-06T18:00:58.753Z,13.75
2018-11-06T18:03:27.805Z,13.72
2018-11-06T18:05:56.947Z,13.73
2018-11-06T18:08:25.871Z,13.72
2018-11-06T18:10:54.860Z,13.68
2018-11-06T18:13:24.744Z,13.66
2018-11-06T18:15:53.699Z,13.66
2018-11-06T18:18:22.747Z,13.65
2018-11-06T18:20:51.678Z,13.62
2018-11-06T18:23:20.665Z,13.61
2018-11-06T18:25:49.834Z,13.60
2018-11-06T18:28:18.599Z,13.58
2018-11-06T18:30:47.633Z,13.56
2018-11-06T18:33:16.467Z,13.54
2018-11-06T18:35:45.494Z,13.53
2018-11-06T18:38:14.407Z,13.53
2018-11-06T18:40:43.441Z,13.53
2018-11-06T18:43:13.154Z,13.52
2018-11-06T18:45:42.106Z,13.49
2018-11-06T18:48:11.222Z,13.47
2018-11-06T18:50:40.185Z,13.44
2018-11-06T18:53:09.192Z,13.40
2018-11-06T18:55:38.561Z,13.40
2018-11-06T18:58:07.562Z,13.40
2018-11-06T19:00:36.452Z,13.37
2018-11-06T19:03:05.881Z,13.36
2018-11-06T19:05:34.743Z,13.35
2018-11-06T19:08:03.771Z,13.36
2018-11-06T19:10:33.632Z,13.33
2018-11-06T19:13:02.457Z,13.33
2018-11-06T19:15:31.521Z,13.33
2018-11-06T19:18:00.417Z,13.34
2018-11-06T19:20:29.355Z,13.29
2018-11-06T19:22:58.246Z,13.30
2018-11-06T19:25:27.509Z,13.31
2018-11-06T19:27:56.629Z,13.30
2018-11-06T19:30:25.610Z,13.31
2018-11-06T19:32:54.641Z,13.30
2018-11-06T19:35:23.526Z,13.28
2018-11-06T19:37:52.463Z,13.24
2018-11-06T19:40:21.340Z,13.24
2018-11-06T19:42:50.298Z,13.19
2018-11-06T19:45:19.205Z,13.14
2018-11-06T19:47:48.115Z,13.13
2018-11-06T19:50:18.467Z,13.09
2018-11-06T19:52:47.836Z,13.09
2018-11-06T19:55:17.722Z,13.06
2018-11-06T19:57:46.813Z,13.03
2018-11-06T20:00:20.182Z,13.04
2018-11-06T20:02:50.676Z,13.02
2018-11-06T20:05:20.058Z,13.01
2018-11-06T20:07:50.196Z,13.00
2018-11-06T20:10:20.426Z,12.99
2018-11-06T20:12:50.535Z,12.97
2018-11-06T20:15:19.810Z,12.95
2018-11-06T20:17:49.025Z,12.95
2018-11-06T20:20:20.604Z,12.92
2018-11-06T20:22:49.519Z,12.90
2018-11-06T20:25:18.510Z,12.89
2018-11-06T20:27:47.646Z,12.90
2018-11-06T20:30:19.346Z,12.89
2018-11-06T20:32:49.046Z,12.87
2018-11-06T20:35:18.301Z,12.87
2018-11-06T20:37:47.745Z,12.86
2018-11-06T20:40:20.586Z,12.85
2018-11-06T20:42:49.663Z,12.86
2018-11-06T20:45:19.432Z,12.84
2018-11-06T20:47:48.444Z,12.83
2018-11-06T20:50:20.168Z,12.82
2018-11-06T20:52:49.663Z,12.82
2018-11-06T20:55:19.353Z,12.80
2018-11-06T20:57:48.263Z,12.78
2018-11-06T21:00:26.072Z,12.76
2018-11-06T21:02:55.948Z,12.75
2018-11-06T21:05:24.981Z,12.75
2018-11-06T21:07:54.741Z,12.74
2018-11-06T21:10:24.991Z,12.73
2018-11-06T21:12:53.826Z,12.70
2018-11-06T21:15:22.912Z,12.68
2018-11-06T21:17:52.303Z,12.66
2018-11-06T21:20:21.292Z,12.65
2018-11-06T21:22:50.430Z,12.63
2018-11-06T21:25:19.357Z,12.63
2018-11-06T21:27:48.442Z,12.61
2018-11-06T21:30:18.797Z,12.59
2018-11-06T21:32:48.851Z,12.56
2018-11-06T21:35:18.462Z,12.55
2018-11-06T21:37:47.380Z,12.53
2018-11-06T21:40:18.317Z,12.52
2018-11-06T21:42:48.078Z,12.50
2018-11-06T21:45:17.833Z,12.51
2018-11-06T21:47:47.428Z,12.49
2018-11-06T21:50:17.163Z,12.48
2018-11-06T21:52:46.043Z,12.47
2018-11-06T21:55:16.160Z,12.46
2018-11-06T21:57:45.025Z,12.45
2018-11-06T22:00:16.405Z,12.45
2018-11-06T22:02:45.558Z,12.49
2018-11-06T22:05:15.582Z,12.45
2018-11-06T22:07:44.669Z,12.46
2018-11-06T22:10:19.086Z,12.44
2018-11-06T22:12:48.195Z,12.42
2018-11-06T22:15:18.152Z,12.40
2018-11-06T22:17:47.722Z,12.41
2018-11-06T22:20:17.826Z,12.40
2018-11-06T22:22:47.333Z,12.39
2018-11-06T22:25:16.337Z,12.38
2018-11-06T22:27:45.574Z,12.37
2018-11-06T22:30:15.460Z,12.36
2018-11-06T22:32:45.421Z,12.36
2018-11-06T22:35:15.384Z,12.34
2018-11-06T22:37:44.242Z,12.32
2018-11-06T22:40:14.435Z,12.33
2018-11-06T22:42:43.638Z,12.31
2018-11-06T22:45:13.832Z,12.32
2018-11-06T22:47:43.125Z,12.30
2018-11-06T22:50:14.647Z,12.29
2018-11-06T22:52:43.949Z,12.27
2018-11-06T22:55:13.118Z,12.30
2018-11-06T22:57:42.144Z,12.28
2018-11-06T23:00:14.284Z,12.28
2018-11-06T23:02:44.431Z,12.25
2018-11-06T23:05:13.736Z,12.26
2018-11-06T23:07:47.603Z,12.26
2018-11-06T23:10:16.419Z,12.23
2018-11-06T23:12:45.304Z,12.19
2018-11-06T23:15:14.235Z,12.17
2018-11-06T23:17:43.090Z,12.15
2018-11-06T23:20:11.882Z,12.19
2018-11-06T23:22:40.832Z,12.16
2018-11-06T23:25:09.764Z,12.15
2018-11-06T23:27:38.557Z,12.11
2018-11-06T23:30:10.227Z,12.11
2018-11-06T23:32:39.110Z,12.09
2018-11-06T23:35:08.004Z,12.08
2018-11-06T23:37:36.893Z,12.10
2018-11-06T23:40:05.938Z,12.08
2018-11-06T23:42:35.118Z,12.08
2018-11-06T23:45:04.530Z,12.06
2018-11-06T23:47:33.898Z,12.02
2018-11-06T23:50:02.830Z,12.04
2018-11-06T23:52:32.087Z,12.04
2018-11-06T23:55:00.983Z,12.01
2018-11-06T23:57:30.696Z,12.00
